Time;durP1;ratioP1;P1;durP2;ratioP2;P2;SDS_P1;SDS_P2;PMS_P1;PMS_P2;Temp;Humidity;BMP_temperature;BMP_pressure;BME280_temperature;BME280_humidity;BME280_pressure;Samples;Min_cycle;Max_cycle;Signal;HPM_P1;HPM_P2
2022/11/07 12:56:39;;;;;;;2.17;0.73;;;;;;;;;;5068919;28;20438;-75
2022/11/07 12:59:41;;;;;;;3.38;1.65;;;;;;;;;;5131525;27;20124;-80
2022/11/07 13:02:14;;;;;;;2.75;1.13;;;;;;;;;;5114526;28;20039;-76
2022/11/07 13:05:34;;;;;;;2.40;0.95;;;;;;;;;;5130013;27;20119;-73
2022/11/07 13:08:09;;;;;;;1.13;1.00;;;;;;;;;;5130145;28;20119;-76
2022/11/07 13:10:47;;;;;;;0.60;0.50;;;;;;;;;;5129999;28;20031;-76
2022/11/07 13:13:18;;;;;;;3.65;0.75;;;;;;;;;;5105145;28;20034;-86
2022/11/07 13:15:43;;;;;;;1.92;1.70;;;;;;;;;;5121720;28;20054;-87
2022/11/07 13:18:13;;;;;;;1.63;0.75;;;;;;;;;;5112309;28;20047;-84
2022/11/07 13:20:38;;;;;;;;;;;;;;;;;;5130971;28;20063;-83
2022/11/07 13:23:12;;;;;;;3.20;0.80;;;;;;;;;;5130627;28;19919;-85
2022/11/07 13:25:39;;;;;;;1.48;0.70;;;;;;;;;;5130285;28;20031;-85
2022/11/07 13:28:24;;;;;;;4.45;1.27;;;;;;;;;;5130283;28;20028;-83
2022/11/07 13:30:55;;;;;;;2.88;1.02;;;;;;;;;;5131044;27;20046;-83
2022/11/07 13:33:25;;;;;;;1.85;0.80;;;;;;;;;;5130077;28;20027;-82
2022/11/07 13:35:56;;;;;;;2.85;1.92;;;;;;;;;;5131270;28;20109;-87
2022/11/07 13:38:23;;;;;;;1.35;1.08;;;;;;;;;;5130519;28;20027;-87
2022/11/07 13:40:57;;;;;;;1.90;1.00;;;;;;;;;;5130213;28;20077;-84
2022/11/07 13:43:31;;;;;;;0.95;0.93;;;;;;;;;;5130062;28;20180;-82
2022/11/07 13:46:01;;;;;;;1.92;1.10;;;;;;;;;;5111818;28;20073;-83
2022/11/07 13:48:29;;;;;;;2.15;1.20;;;;;;;;;;5129688;28;20039;-87
2022/11/07 13:51:08;;;;;;;1.73;1.00;;;;;;;;;;5109715;28;20039;-82
2022/11/07 13:53:50;;;;;;;2.90;1.17;;;;;;;;;;5108959;28;20027;-82
2022/11/07 13:56:16;;;;;;;2.20;1.75;;;;;;;;;;5108845;28;20169;-83
2022/11/07 13:58:42;;;;;;;2.20;1.67;;;;;;;;;;5109750;28;20063;-91
2022/11/07 14:01:09;;;;;;;2.38;1.10;;;;;;;;;;5109392;28;20036;-88
2022/11/07 14:03:34;;;;;;;2.20;0.98;;;;;;;;;;5090672;28;20148;-89
2022/11/07 14:06:00;;;;;;;1.33;0.90;;;;;;;;;;5109511;28;20490;-86
2022/11/07 14:08:37;;;;;;;3.50;1.00;;;;;;;;;;5090895;28;20093;-84
2022/11/07 14:11:03;;;;;;;5.10;1.70;;;;;;;;;;5108408;28;20088;-84
2022/11/07 14:13:33;;;;;;;2.80;1.30;;;;;;;;;;5109234;28;20036;-88
2022/11/07 14:16:00;;;;;;;3.72;3.13;;;;;;;;;;5101079;28;20197;-86
2022/11/07 14:18:28;;;;;;;3.10;1.83;;;;;;;;;;5076931;28;20036;-87
2022/11/07 14:20:55;;;;;;;3.45;2.15;;;;;;;;;;5095400;28;20552;-87
2022/11/07 14:23:22;;;;;;;2.00;1.80;;;;;;;;;;5110361;28;20505;-91
2022/11/07 14:26:01;;;;;;;3.10;2.03;;;;;;;;;;5114921;28;20059;-92
2022/11/07 14:28:36;;;;;;;5.43;2.20;;;;;;;;;;5115576;28;20035;-80
2022/11/07 14:31:06;;;;;;;3.72;2.15;;;;;;;;;;5113225;28;20093;-80
2022/11/07 14:33:31;;;;;;;2.20;1.92;;;;;;;;;;5115390;28;20040;-89
2022/11/07 14:36:01;;;;;;;5.30;2.35;;;;;;;;;;5115723;28;20032;-86
2022/11/07 14:38:26;;;;;;;3.85;1.50;;;;;;;;;;5115463;28;20875;-88
2022/11/07 14:40:54;;;;;;;4.10;1.73;;;;;;;;;;5115102;28;20066;-86
2022/11/07 14:43:21;;;;;;;4.30;3.25;;;;;;;;;;5115550;28;20096;-86
2022/11/07 14:45:46;;;;;;;2.25;1.80;;;;;;;;;;5097319;28;20039;-88
2022/11/07 14:48:13;;;;;;;3.13;2.08;;;;;;;;;;5096585;28;20027;-86
2022/11/07 14:50:39;;;;;;;3.45;1.52;;;;;;;;;;5115729;28;20035;-86
2022/11/07 14:53:09;;;;;;;4.78;2.35;;;;;;;;;;5097370;28;20031;-86
2022/11/07 14:55:44;;;;;;;4.60;1.23;;;;;;;;;;5115250;28;20050;-83
2022/11/07 14:58:10;;;;;;;9.52;1.45;;;;;;;;;;5115128;28;20036;-83
2022/11/07 15:00:35;;;;;;;2.95;2.03;;;;;;;;;;5096697;28;20036;-83
2022/11/07 15:03:01;;;;;;;10.30;2.08;;;;;;;;;;5096155;28;20036;-82
2022/11/07 15:05:29;;;;;;;3.60;1.60;;;;;;;;;;5114646;28;20146;-82
2022/11/07 15:07:55;;;;;;;3.05;1.20;;;;;;;;;;5114879;28;20119;-82
2022/11/07 15:10:26;;;;;;;2.33;1.40;;;;;;;;;;5115029;28;20035;-82
2022/11/07 15:12:54;;;;;;;3.60;1.30;;;;;;;;;;5115220;28;20039;-82
2022/11/07 15:15:29;;;;;;;1.40;1.13;;;;;;;;;;5114955;28;20050;-83
2022/11/07 15:17:55;;;;;;;1.25;1.10;;;;;;;;;;5096192;28;20031;-83
2022/11/07 15:20:31;;;;;;;3.40;1.02;;;;;;;;;;5114602;28;20069;-82
2022/11/07 15:22:57;;;;;;;5.30;1.60;;;;;;;;;;5114962;28;20031;-82
2022/11/07 15:25:22;;;;;;;2.10;1.13;;;;;;;;;;5114500;28;20031;-82
2022/11/07 15:27:48;;;;;;;2.20;1.33;;;;;;;;;;5113806;28;20038;-82
2022/11/07 15:30:23;;;;;;;1.85;1.35;;;;;;;;;;5096435;28;20138;-82
2022/11/07 15:32:48;;;;;;;3.35;2.10;;;;;;;;;;5114521;28;20035;-82
2022/11/07 15:35:15;;;;;;;1.95;1.00;;;;;;;;;;5114646;28;20500;-82
2022/11/07 15:37:49;;;;;;;2.72;1.10;;;;;;;;;;5114688;28;20027;-82
2022/11/07 15:40:15;;;;;;;3.40;1.25;;;;;;;;;;5113825;28;20111;-82
2022/11/07 15:42:41;;;;;;;2.22;1.52;;;;;;;;;;5114583;28;20073;-82
2022/11/07 15:45:07;;;;;;;2.45;0.88;;;;;;;;;;5114395;28;20409;-82
2022/11/07 15:47:33;;;;;;;1.80;1.00;;;;;;;;;;5113647;28;20035;-82
2022/11/07 15:49:58;;;;;;;1.95;1.02;;;;;;;;;;5114052;28;20058;-83
2022/11/07 15:52:24;;;;;;;1.33;1.10;;;;;;;;;;5114594;28;20039;-83
2022/11/07 15:54:49;;;;;;;2.03;1.10;;;;;;;;;;5114025;28;20031;-83
2022/11/07 15:57:14;;;;;;;1.50;0.88;;;;;;;;;;5113871;28;20027;-82
2022/11/07 15:59:40;;;;;;;1.45;1.15;;;;;;;;;;5113826;28;20035;-83
2022/11/07 16:02:09;;;;;;;1.40;0.98;;;;;;;;;;5113258;28;20065;-83
2022/11/07 16:04:34;;;;;;;1.65;1.20;;;;;;;;;;5113116;28;20066;-82
2022/11/07 16:07:00;;;;;;;1.58;1.40;;;;;;;;;;5113754;28;20427;-83
2022/11/07 16:09:27;;;;;;;2.72;1.70;;;;;;;;;;5095059;28;20555;-83
2022/11/07 16:11:52;;;;;;;0.80;0.80;;;;;;;;;;5114322;28;20039;-82
2022/11/07 16:14:20;;;;;;;1.48;1.30;;;;;;;;;;5095832;28;20405;-83
2022/11/07 16:16:47;;;;;;;1.17;1.08;;;;;;;;;;5113534;28;20040;-84
2022/11/07 16:19:17;;;;;;;2.13;1.30;;;;;;;;;;5113953;28;20047;-82
2022/11/07 16:21:42;;;;;;;3.80;1.40;;;;;;;;;;5113508;28;20047;-83
2022/11/07 16:24:08;;;;;;;1.75;1.00;;;;;;;;;;5113031;28;20540;-82
2022/11/07 16:26:34;;;;;;;1.25;1.15;;;;;;;;;;5113714;28;20043;-83
2022/11/07 16:28:59;;;;;;;1.40;1.10;;;;;;;;;;5095182;28;20042;-83
2022/11/07 16:31:25;;;;;;;1.80;1.70;;;;;;;;;;5113010;28;20042;-82
2022/11/07 16:33:52;;;;;;;1.02;0.82;;;;;;;;;;5113133;28;20031;-81
2022/11/07 16:36:24;;;;;;;2.38;0.80;;;;;;;;;;5112891;28;20507;-81
2022/11/07 16:38:50;;;;;;;1.98;1.75;;;;;;;;;;5112094;28;20031;-81
2022/11/07 16:41:16;;;;;;;1.48;0.90;;;;;;;;;;5112737;28;20032;-81
2022/11/07 16:43:41;;;;;;;2.00;1.17;;;;;;;;;;5112651;28;20505;-81
2022/11/07 16:46:17;;;;;;;1.83;1.73;;;;;;;;;;5112137;28;20100;-81
2022/11/07 16:48:42;;;;;;;;;;;;;;;;;;5094831;28;20131;-84
2022/11/07 16:51:12;;;;;;;1.27;1.00;;;;;;;;;;5112792;28;20341;-83
2022/11/07 16:53:37;;;;;;;0.80;0.80;;;;;;;;;;5093415;28;20063;-83
2022/11/07 16:56:02;;;;;;;1.25;0.90;;;;;;;;;;5111917;28;20066;-83
2022/11/07 16:58:37;;;;;;;2.33;0.88;;;;;;;;;;5111935;28;20027;-83
2022/11/07 17:01:04;;;;;;;1.20;0.98;;;;;;;;;;5093381;28;20045;-83
2022/11/07 17:03:30;;;;;;;1.25;1.15;;;;;;;;;;5111658;28;20077;-81
2022/11/07 17:05:57;;;;;;;1.05;1.00;;;;;;;;;;5111701;28;20044;-82
2022/11/07 17:08:24;;;;;;;1.30;1.20;;;;;;;;;;5111270;28;20557;-83
2022/11/07 17:10:50;;;;;;;1.13;1.00;;;;;;;;;;5111275;28;20061;-82
2022/11/07 17:13:15;;;;;;;0.93;0.90;;;;;;;;;;5093301;28;20032;-82
2022/11/07 17:15:41;;;;;;;1.25;1.08;;;;;;;;;;5093420;28;20517;-83
2022/11/07 17:18:15;;;;;;;1.15;1.00;;;;;;;;;;5111660;28;20042;-83
2022/11/07 17:20:40;;;;;;;0.90;0.85;;;;;;;;;;5111574;28;20169;-83
2022/11/07 17:23:05;;;;;;;1.92;1.17;;;;;;;;;;5112538;28;20122;-89
2022/11/07 17:25:31;;;;;;;0.80;0.77;;;;;;;;;;5112801;28;20027;-88
2022/11/07 17:27:56;;;;;;;4.57;1.10;;;;;;;;;;5113112;28;20041;-90
2022/11/07 17:30:21;;;;;;;1.92;1.00;;;;;;;;;;5112886;28;20122;-89
2022/11/07 17:32:47;;;;;;;2.95;0.90;;;;;;;;;;5094634;28;20039;-90
2022/11/07 17:35:12;;;;;;;1.10;1.00;;;;;;;;;;5113230;28;20027;-87
2022/11/07 17:37:38;;;;;;;2.08;1.23;;;;;;;;;;5112774;28;20089;-87
2022/11/07 17:40:04;;;;;;;2.85;1.33;;;;;;;;;;5112881;28;20528;-87
2022/11/07 17:42:29;;;;;;;1.33;1.00;;;;;;;;;;5094344;28;20035;-87
2022/11/07 17:44:55;;;;;;;0.90;0.82;;;;;;;;;;5112468;28;20501;-87
2022/11/07 17:47:26;;;;;;;1.42;1.05;;;;;;;;;;5112398;28;20126;-87
2022/11/07 17:49:51;;;;;;;1.70;1.60;;;;;;;;;;5112694;28;20040;-86
2022/11/07 17:52:16;;;;;;;0.80;0.80;;;;;;;;;;5098256;28;20088;-87
2022/11/07 17:54:42;;;;;;;0.80;0.80;;;;;;;;;;5116884;28;20055;-87
2022/11/07 17:57:07;;;;;;;0.80;0.80;;;;;;;;;;5116910;28;20122;-86
2022/11/07 17:59:33;;;;;;;2.47;1.00;;;;;;;;;;5116452;28;20039;-86
2022/11/07 18:01:58;;;;;;;2.15;2.03;;;;;;;;;;5116428;28;20486;-88
2022/11/07 18:04:23;;;;;;;1.90;0.80;;;;;;;;;;5116250;28;20426;-87
2022/11/07 18:06:49;;;;;;;0.82;0.70;;;;;;;;;;5116545;28;20486;-88
2022/11/07 18:09:15;;;;;;;2.05;1.85;;;;;;;;;;5116594;28;20034;-88
2022/11/07 18:11:40;;;;;;;0.85;0.75;;;;;;;;;;5116747;28;20127;-87
2022/11/07 18:14:06;;;;;;;1.35;1.35;;;;;;;;;;5116277;28;20031;-88
2022/11/07 18:16:33;;;;;;;1.98;1.00;;;;;;;;;;5116417;28;20114;-87
2022/11/07 18:19:01;;;;;;;1.15;0.90;;;;;;;;;;5098116;28;20126;-87
2022/11/07 18:21:26;;;;;;;4.85;1.17;;;;;;;;;;5115769;28;20035;-86
2022/11/07 18:23:52;;;;;;;0.80;0.80;;;;;;;;;;5116299;28;20561;-87
2022/11/07 18:26:19;;;;;;;1.88;1.67;;;;;;;;;;5097918;28;20080;-86
2022/11/07 18:28:45;;;;;;;3.13;1.13;;;;;;;;;;5116467;28;20041;-86
2022/11/07 18:31:12;;;;;;;2.53;1.00;;;;;;;;;;5117445;28;20504;-86
2022/11/07 18:33:38;;;;;;;1.95;1.05;;;;;;;;;;5116543;28;20031;-87
2022/11/07 18:36:06;;;;;;;2.53;1.08;;;;;;;;;;5117247;28;20085;-87
2022/11/07 18:38:31;;;;;;;1.10;0.93;;;;;;;;;;5116020;28;20464;-89
2022/11/07 18:40:58;;;;;;;1.80;0.95;;;;;;;;;;5116161;28;20067;-88
2022/11/07 18:43:23;;;;;;;2.45;1.20;;;;;;;;;;5097412;28;20057;-87
2022/11/07 18:45:49;;;;;;;2.50;1.10;;;;;;;;;;5115821;28;20035;-88
2022/11/07 18:48:14;;;;;;;5.00;1.50;;;;;;;;;;5115768;28;20035;-86
2022/11/07 18:50:39;;;;;;;3.58;1.48;;;;;;;;;;5115962;28;20028;-86
2022/11/07 18:53:05;;;;;;;2.72;2.38;;;;;;;;;;5112070;28;20031;-88
2022/11/07 18:55:30;;;;;;;1.85;1.75;;;;;;;;;;5095025;28;20518;-86
2022/11/07 18:57:58;;;;;;;1.52;1.25;;;;;;;;;;5076633;28;20050;-86
2022/11/07 19:00:24;;;;;;;1.80;1.30;;;;;;;;;;5076008;28;20038;-84
2022/11/07 19:02:49;;;;;;;1.67;1.10;;;;;;;;;;5076163;28;20055;-86
2022/11/07 19:05:16;;;;;;;1.25;1.00;;;;;;;;;;5094272;28;20114;-83
2022/11/07 19:07:43;;;;;;;2.58;1.20;;;;;;;;;;5093986;28;20056;-88
2022/11/07 19:10:09;;;;;;;2.67;2.22;;;;;;;;;;5076384;28;20445;-86
2022/11/07 19:12:35;;;;;;;1.20;0.95;;;;;;;;;;5076505;28;20051;-85
2022/11/07 19:15:00;;;;;;;2.72;1.38;;;;;;;;;;5076339;28;20111;-85
2022/11/07 19:17:25;;;;;;;1.10;1.00;;;;;;;;;;5075516;28;20058;-87
2022/11/07 19:19:52;;;;;;;2.47;1.30;;;;;;;;;;5078836;28;20192;-87
2022/11/07 19:22:18;;;;;;;1.25;1.00;;;;;;;;;;5107957;28;20440;-87
2022/11/07 19:24:43;;;;;;;1.67;1.05;;;;;;;;;;5095549;28;20028;-86
2022/11/07 19:27:08;;;;;;;1.85;1.10;;;;;;;;;;5114967;28;20034;-82
2022/11/07 19:29:35;;;;;;;1.55;1.23;;;;;;;;;;5113396;28;20046;-84
2022/11/07 19:32:00;;;;;;;2.00;1.20;;;;;;;;;;5094694;28;20031;-83
2022/11/07 19:34:25;;;;;;;1.23;0.90;;;;;;;;;;5113612;28;20359;-84
2022/11/07 19:36:51;;;;;;;1.45;0.95;;;;;;;;;;5113607;28;20446;-83
2022/11/07 19:39:16;;;;;;;1.33;0.90;;;;;;;;;;5113708;28;20723;-82
2022/11/07 19:41:41;;;;;;;1.60;1.10;;;;;;;;;;5095551;28;20501;-83
2022/11/07 19:44:07;;;;;;;1.13;0.93;;;;;;;;;;5095190;28;20045;-83
2022/11/07 19:46:32;;;;;;;1.90;1.80;;;;;;;;;;5095542;28;20092;-83
2022/11/07 19:48:57;;;;;;;1.30;1.00;;;;;;;;;;5113746;28;20032;-84
2022/11/07 19:51:23;;;;;;;1.75;0.80;;;;;;;;;;5096415;28;20410;-85
2022/11/07 19:53:52;;;;;;;2.58;1.30;;;;;;;;;;5097333;28;20027;-85
2022/11/07 19:56:17;;;;;;;;;;;;;;;;;;5116724;28;20081;-88
2022/11/07 19:58:43;;;;;;;0.80;0.80;;;;;;;;;;5096815;28;19915;-86
2022/11/07 20:01:20;;;;;;;2.22;1.00;;;;;;;;;;5118523;28;20114;-86
2022/11/07 20:03:47;;;;;;;1.75;1.05;;;;;;;;;;5114879;28;20160;-84
2022/11/07 20:06:13;;;;;;;1.05;0.90;;;;;;;;;;5115052;28;20031;-85
2022/11/07 20:08:39;;;;;;;2.70;1.90;;;;;;;;;;5114772;28;20035;-86
2022/11/07 20:11:04;;;;;;;1.00;0.93;;;;;;;;;;5114408;28;20031;-86
2022/11/07 20:13:29;;;;;;;3.40;2.03;;;;;;;;;;5113588;28;20477;-89
2022/11/07 20:15:56;;;;;;;1.30;0.93;;;;;;;;;;5114561;28;20496;-87
2022/11/07 20:18:21;;;;;;;3.20;0.90;;;;;;;;;;5096104;28;20031;-87
2022/11/07 20:20:47;;;;;;;1.27;1.13;;;;;;;;;;5113955;28;20450;-86
2022/11/07 20:23:12;;;;;;;1.40;0.90;;;;;;;;;;5114863;28;20023;-86
2022/11/07 20:25:41;;;;;;;3.08;1.10;;;;;;;;;;5115058;28;20110;-87
2022/11/07 20:28:07;;;;;;;2.17;0.93;;;;;;;;;;5114834;28;20771;-87
2022/11/07 20:30:32;;;;;;;1.92;1.00;;;;;;;;;;5096292;28;20031;-87
2022/11/07 20:32:58;;;;;;;0.80;0.80;;;;;;;;;;5113892;28;20059;-86
2022/11/07 20:35:23;;;;;;;6.18;1.27;;;;;;;;;;5095046;28;20028;-85
2022/11/07 20:37:48;;;;;;;2.15;1.70;;;;;;;;;;5113435;28;20043;-85
2022/11/07 20:40:14;;;;;;;6.43;1.00;;;;;;;;;;5095439;28;20031;-85
2022/11/07 20:42:39;;;;;;;11.05;1.10;;;;;;;;;;5112914;28;20042;-85
2022/11/07 20:45:05;;;;;;;1.27;1.17;;;;;;;;;;5112753;28;20397;-77
2022/11/07 20:47:31;;;;;;;2.45;1.80;;;;;;;;;;5112098;28;20028;-78
2022/11/07 20:49:56;;;;;;;1.13;1.02;;;;;;;;;;5110779;28;20035;-78
2022/11/07 20:52:21;;;;;;;2.65;1.05;;;;;;;;;;5110760;28;20628;-76
2022/11/07 20:54:47;;;;;;;1.38;0.77;;;;;;;;;;5110851;28;20024;-77
2022/11/07 20:57:12;;;;;;;2.72;1.08;;;;;;;;;;5092171;28;20379;-77
2022/11/07 20:59:40;;;;;;;2.00;1.10;;;;;;;;;;5092352;28;20027;-76
2022/11/07 21:02:05;;;;;;;1.92;0.98;;;;;;;;;;5092446;28;20035;-76
2022/11/07 21:04:31;;;;;;;3.50;0.93;;;;;;;;;;5109909;28;20179;-77
2022/11/07 21:06:56;;;;;;;2.05;1.85;;;;;;;;;;5110598;28;20056;-76
2022/11/07 21:09:22;;;;;;;2.22;1.58;;;;;;;;;;5110759;28;20650;-76
2022/11/07 21:11:48;;;;;;;0.70;0.70;;;;;;;;;;5110310;28;20043;-77
2022/11/07 21:14:13;;;;;;;2.47;1.10;;;;;;;;;;5110473;28;20050;-76
2022/11/07 21:16:39;;;;;;;1.95;1.00;;;;;;;;;;5110425;28;20043;-77
2022/11/07 21:19:04;;;;;;;6.18;1.60;;;;;;;;;;5110181;28;20061;-77
2022/11/07 21:21:31;;;;;;;2.95;1.92;;;;;;;;;;5110360;28;20085;-77
2022/11/07 21:23:57;;;;;;;1.50;1.40;;;;;;;;;;5110442;28;20470;-77
2022/11/07 21:26:25;;;;;;;1.65;0.80;;;;;;;;;;5112509;28;20119;-77
2022/11/07 21:28:50;;;;;;;2.50;1.75;;;;;;;;;;5114502;28;20024;-76
2022/11/07 21:31:18;;;;;;;2.92;0.90;;;;;;;;;;5114392;28;20539;-76
2022/11/07 21:33:45;;;;;;;1.20;0.82;;;;;;;;;;5095862;28;20493;-77
2022/11/07 21:36:11;;;;;;;1.45;0.90;;;;;;;;;;5114469;28;20056;-76
2022/11/07 21:38:37;;;;;;;0.82;0.82;;;;;;;;;;5114549;28;20112;-77
2022/11/07 21:41:03;;;;;;;1.55;1.45;;;;;;;;;;5114404;28;20858;-76
2022/11/07 21:43:28;;;;;;;1.10;1.00;;;;;;;;;;5114120;28;20084;-78
2022/11/07 21:45:53;;;;;;;0.82;0.70;;;;;;;;;;5114150;28;20036;-77
2022/11/07 21:48:19;;;;;;;1.58;1.48;;;;;;;;;;5113743;28;20026;-77
2022/11/07 21:50:44;;;;;;;0.82;0.70;;;;;;;;;;5115019;28;20032;-77
2022/11/07 21:53:09;;;;;;;1.27;1.02;;;;;;;;;;5115860;28;20028;-77
2022/11/07 21:55:35;;;;;;;2.17;0.93;;;;;;;;;;5097446;28;20026;-78
2022/11/07 21:58:00;;;;;;;0.98;0.93;;;;;;;;;;5115387;28;20045;-77
2022/11/07 22:00:26;;;;;;;1.48;0.77;;;;;;;;;;5115699;28;20520;-77
2022/11/07 22:02:51;;;;;;;1.70;1.55;;;;;;;;;;5115589;28;20076;-77
2022/11/07 22:05:16;;;;;;;0.70;0.70;;;;;;;;;;5114915;28;20477;-77
2022/11/07 22:07:42;;;;;;;1.15;0.80;;;;;;;;;;5115584;28;20392;-77
2022/11/07 22:10:08;;;;;;;1.02;0.90;;;;;;;;;;5115380;28;20032;-77
2022/11/07 22:12:33;;;;;;;0.77;0.77;;;;;;;;;;5114998;28;20038;-77
2022/11/07 22:14:59;;;;;;;0.75;0.70;;;;;;;;;;5115480;28;20023;-77
2022/11/07 22:17:25;;;;;;;0.95;0.70;;;;;;;;;;5115236;28;20130;-77
2022/11/07 22:19:51;;;;;;;1.15;0.90;;;;;;;;;;5115056;28;20093;-77
2022/11/07 22:22:16;;;;;;;7.25;1.17;;;;;;;;;;5115251;28;20063;-77
2022/11/07 22:24:42;;;;;;;1.42;0.82;;;;;;;;;;5115111;28;20035;-77
2022/11/07 22:27:07;;;;;;;0.85;0.77;;;;;;;;;;5096465;28;20126;-77
2022/11/07 22:29:32;;;;;;;1.17;0.70;;;;;;;;;;5114994;28;20409;-77
2022/11/07 22:31:58;;;;;;;1.05;0.75;;;;;;;;;;5115037;28;20027;-77
2022/11/07 22:34:24;;;;;;;1.45;0.88;;;;;;;;;;5114781;28;20047;-77
2022/11/07 22:36:49;;;;;;;1.15;0.82;;;;;;;;;;5114491;28;20053;-77
2022/11/07 22:39:14;;;;;;;0.70;0.60;;;;;;;;;;5114849;28;20057;-77
2022/11/07 22:41:40;;;;;;;0.80;0.63;;;;;;;;;;5114286;28;20436;-77
2022/11/07 22:44:05;;;;;;;1.15;0.73;;;;;;;;;;5114795;28;20036;-78
2022/11/07 22:46:30;;;;;;;1.10;0.85;;;;;;;;;;5114498;28;20043;-78
2022/11/07 22:48:57;;;;;;;0.60;0.60;;;;;;;;;;5095621;28;20593;-77
2022/11/07 22:51:23;;;;;;;2.65;0.82;;;;;;;;;;5112982;28;20118;-77
2022/11/07 22:53:56;;;;;;;4.03;0.57;;;;;;;;;;5113088;28;20512;-78
2022/11/07 22:56:21;;;;;;;2.00;0.70;;;;;;;;;;5094323;28;20484;-78
2022/11/07 22:58:47;;;;;;;0.93;0.82;;;;;;;;;;5113031;28;20095;-78
2022/11/07 23:01:20;;;;;;;1.80;1.70;;;;;;;;;;5111088;28;20032;-78
2022/11/07 23:03:45;;;;;;;1.63;0.80;;;;;;;;;;5111395;28;20120;-78
2022/11/07 23:06:11;;;;;;;0.68;0.60;;;;;;;;;;5112726;28;20036;-77
2022/11/07 23:08:36;;;;;;;0.80;0.80;;;;;;;;;;5112628;28;20054;-79
2022/11/07 23:11:03;;;;;;;1.48;0.70;;;;;;;;;;5093891;28;20035;-78
2022/11/07 23:13:29;;;;;;;4.65;1.30;;;;;;;;;;5112253;28;20037;-78
2022/11/07 23:15:54;;;;;;;0.73;0.73;;;;;;;;;;5112442;28;20126;-78
2022/11/07 23:18:20;;;;;;;1.60;1.50;;;;;;;;;;5094069;28;20481;-79
2022/11/07 23:23:30;;;;;;;1.35;0.93;;;;;;;;;;5113739;28;20096;-86
2022/11/07 23:25:56;;;;;;;1.83;0.85;;;;;;;;;;5113674;28;20062;-79
2022/11/07 23:28:21;;;;;;;2.97;0.80;;;;;;;;;;5112267;28;20032;-79
2022/11/07 23:30:51;;;;;;;2.60;0.73;;;;;;;;;;5094033;28;20035;-76
2022/11/07 23:33:16;;;;;;;1.65;0.90;;;;;;;;;;5112310;28;20111;-79
2022/11/07 23:35:42;;;;;;;1.75;0.73;;;;;;;;;;5112449;28;20134;-80
2022/11/07 23:38:07;;;;;;;1.25;0.85;;;;;;;;;;5112891;28;20046;-80
2022/11/07 23:40:34;;;;;;;1.35;0.70;;;;;;;;;;5111781;28;20032;-77
2022/11/07 23:42:59;;;;;;;1.55;0.50;;;;;;;;;;5111725;28;20096;-77
2022/11/07 23:51:03;;;;;;;0.85;0.75;;;;;;;;;;5113070;28;20104;-76
2022/11/07 23:56:16;;;;;;;0.82;0.82;;;;;;;;;;5113411;28;20081;-76
